sensor_id;sensor_type;location;lat;lon;timestamp;pressure;altitude;pressure_sealevel;temperature;humidity
48790;BME280;41718;51.980;5.734;2023-07-13T00:01:41;101290.06;;;15.19;100.00
48790;BME280;41718;51.980;5.734;2023-07-13T00:06:43;101287.47;;;15.20;100.00
48790;BME280;41718;51.980;5.734;2023-07-13T00:11:51;101290.06;;;15.19;100.00
48790;BME280;41718;51.980;5.734;2023-07-13T00:16:53;101290.88;;;15.05;100.00
48790;BME280;41718;51.980;5.734;2023-07-13T00:21:55;101294.34;;;15.06;100.00
48790;BME280;41718;51.980;5.734;2023-07-13T00:26:57;101293.47;;;14.99;100.00
48790;BME280;41718;51.980;5.734;2023-07-13T00:31:59;101296.91;;;14.88;100.00
48790;BME280;41718;51.980;5.734;2023-07-13T00:37:00;101298.66;;;14.93;100.00
48790;BME280;41718;51.980;5.734;2023-07-13T00:42:03;101302.06;;;14.86;100.00
48790;BME280;41718;51.980;5.734;2023-07-13T00:47:05;101308.13;;;14.79;100.00
48790;BME280;41718;51.980;5.734;2023-07-13T00:52:09;101310.72;;;14.73;100.00
48790;BME280;41718;51.980;5.734;2023-07-13T00:57:14;101304.63;;;14.69;100.00
48790;BME280;41718;51.980;5.734;2023-07-13T01:02:16;101312.41;;;14.65;100.00
48790;BME280;41718;51.980;5.734;2023-07-13T01:07:18;101321.97;;;14.66;100.00
48790;BME280;41718;51.980;5.734;2023-07-13T01:12:20;101318.47;;;14.61;100.00
48790;BME280;41718;51.980;5.734;2023-07-13T01:17:22;101328.88;;;14.59;100.00
48790;BME280;41718;51.980;5.734;2023-07-13T01:22:23;101324.53;;;14.58;100.00
48790;BME280;41718;51.980;5.734;2023-07-13T01:27:28;101319.25;;;14.50;100.00
48790;BME280;41718;51.980;5.734;2023-07-13T01:32:29;101317.56;;;14.54;100.00
48790;BME280;41718;51.980;5.734;2023-07-13T01:37:34;101328.84;;;14.53;100.00
48790;BME280;41718;51.980;5.734;2023-07-13T01:42:38;101317.59;;;14.62;100.00
48790;BME280;41718;51.980;5.734;2023-07-13T01:47:39;101315.81;;;14.54;100.00
48790;BME280;41718;51.980;5.734;2023-07-13T01:52:42;101313.94;;;14.37;100.00
48790;BME280;41718;51.980;5.734;2023-07-13T01:57:43;101319.97;;;14.34;100.00
48790;BME280;41718;51.980;5.734;2023-07-13T02:02:45;101326.09;;;14.38;100.00
48790;BME280;41718;51.980;5.734;2023-07-13T02:07:48;101330.38;;;14.29;100.00
48790;BME280;41718;51.980;5.734;2023-07-13T02:12:50;101332.97;;;14.31;100.00
48790;BME280;41718;51.980;5.734;2023-07-13T02:17:52;101331.22;;;14.24;100.00
48790;BME280;41718;51.980;5.734;2023-07-13T02:22:54;101323.34;;;14.19;100.00
48790;BME280;41718;51.980;5.734;2023-07-13T02:27:56;101344.19;;;14.22;100.00
48790;BME280;41718;51.980;5.734;2023-07-13T02:32:58;101344.94;;;14.09;100.00
48790;BME280;41718;51.980;5.734;2023-07-13T02:38:00;101352.75;;;14.08;100.00
48790;BME280;41718;51.980;5.734;2023-07-13T02:43:02;101345.88;;;14.13;100.00
48790;BME280;41718;51.980;5.734;2023-07-13T02:48:04;101343.22;;;14.11;100.00
48790;BME280;41718;51.980;5.734;2023-07-13T02:53:06;101348.41;;;14.08;100.00
48790;BME280;41718;51.980;5.734;2023-07-13T02:58:08;101349.13;;;13.92;100.00
48790;BME280;41718;51.980;5.734;2023-07-13T03:03:09;101366.44;;;13.88;100.00
48790;BME280;41718;51.980;5.734;2023-07-13T03:08:11;101377.69;;;13.87;100.00
48790;BME280;41718;51.980;5.734;2023-07-13T03:13:13;101376.72;;;13.77;100.00
48790;BME280;41718;51.980;5.734;2023-07-13T03:18:15;101375.00;;;13.78;100.00
48790;BME280;41718;51.980;5.734;2023-07-13T03:23:17;101389.78;;;13.82;100.00
48790;BME280;41718;51.980;5.734;2023-07-13T03:28:18;101392.31;;;13.77;100.00
48790;BME280;41718;51.980;5.734;2023-07-13T03:33:20;101404.47;;;13.77;100.00
48790;BME280;41718;51.980;5.734;2023-07-13T03:38:21;101415.66;;;13.71;100.00
48790;BME280;41718;51.980;5.734;2023-07-13T03:43:23;101412.25;;;13.74;100.00
48790;BME280;41718;51.980;5.734;2023-07-13T03:48:25;101430.47;;;13.75;100.00
48790;BME280;41718;51.980;5.734;2023-07-13T03:53:43;101434.78;;;13.73;100.00
48790;BME280;41718;51.980;5.734;2023-07-13T03:58:46;101433.91;;;13.73;100.00
48790;BME280;41718;51.980;5.734;2023-07-13T04:03:49;101445.19;;;13.75;100.00
48790;BME280;41718;51.980;5.734;2023-07-13T04:08:56;101479.94;;;13.80;100.00
48790;BME280;41718;51.980;5.734;2023-07-13T04:13:58;101488.69;;;13.87;100.00
48790;BME280;41718;51.980;5.734;2023-07-13T04:19:00;101500.03;;;13.95;100.00
48790;BME280;41718;51.980;5.734;2023-07-13T04:24:03;101487.88;;;13.94;100.00
48790;BME280;41718;51.980;5.734;2023-07-13T04:29:06;101505.34;;;14.05;100.00
48790;BME280;41718;51.980;5.734;2023-07-13T04:34:08;101505.34;;;14.04;100.00
48790;BME280;41718;51.980;5.734;2023-07-13T04:39:09;101507.16;;;14.11;100.00
48790;BME280;41718;51.980;5.734;2023-07-13T04:44:11;101514.16;;;14.17;100.00
48790;BME280;41718;51.980;5.734;2023-07-13T04:49:12;101510.63;;;14.10;100.00
48790;BME280;41718;51.980;5.734;2023-07-13T04:54:14;101518.59;;;14.27;100.00
48790;BME280;41718;51.980;5.734;2023-07-13T04:59:16;101518.66;;;14.33;100.00
48790;BME280;41718;51.980;5.734;2023-07-13T05:04:18;101527.41;;;14.40;100.00
48790;BME280;41718;51.980;5.734;2023-07-13T05:09:20;101531.91;;;14.51;100.00
48790;BME280;41718;51.980;5.734;2023-07-13T05:14:21;101534.28;;;14.30;100.00
48790;BME280;41718;51.980;5.734;2023-07-13T05:19:23;101534.41;;;14.44;100.00
48790;BME280;41718;51.980;5.734;2023-07-13T05:24:25;101553.63;;;14.53;100.00
48790;BME280;41718;51.980;5.734;2023-07-13T05:29:27;101550.28;;;14.64;100.00
48790;BME280;41718;51.980;5.734;2023-07-13T05:34:31;101556.34;;;14.67;100.00
48790;BME280;41718;51.980;5.734;2023-07-13T05:39:33;101557.34;;;14.80;100.00
48790;BME280;41718;51.980;5.734;2023-07-13T05:44:34;101564.38;;;14.92;100.00
48790;BME280;41718;51.980;5.734;2023-07-13T05:49:36;101579.19;;;14.93;100.00
48790;BME280;41718;51.980;5.734;2023-07-13T05:54:38;101585.41;;;15.11;100.00
48790;BME280;41718;51.980;5.734;2023-07-13T05:59:40;101582.94;;;15.28;100.00
48790;BME280;41718;51.980;5.734;2023-07-13T06:04:42;101579.44;;;15.25;100.00
48790;BME280;41718;51.980;5.734;2023-07-13T06:09:43;101596.81;;;15.23;100.00
48790;BME280;41718;51.980;5.734;2023-07-13T06:14:45;101598.59;;;15.31;100.00
48790;BME280;41718;51.980;5.734;2023-07-13T06:19:47;101599.66;;;15.59;100.00
48790;BME280;41718;51.980;5.734;2023-07-13T06:24:48;101616.28;;;15.68;100.00
48790;BME280;41718;51.980;5.734;2023-07-13T06:29:50;101616.47;;;16.03;100.00
48790;BME280;41718;51.980;5.734;2023-07-13T06:34:52;101620.81;;;16.02;100.00
48790;BME280;41718;51.980;5.734;2023-07-13T06:39:54;101619.94;;;16.00;100.00
48790;BME280;41718;51.980;5.734;2023-07-13T06:44:55;101627.88;;;16.17;100.00
48790;BME280;41718;51.980;5.734;2023-07-13T06:49:57;101623.47;;;16.16;100.00
48790;BME280;41718;51.980;5.734;2023-07-13T06:54:59;101622.75;;;16.46;100.00
48790;BME280;41718;51.980;5.734;2023-07-13T07:00:03;101626.16;;;16.33;100.00
48790;BME280;41718;51.980;5.734;2023-07-13T07:05:11;101634.88;;;16.36;100.00
48790;BME280;41718;51.980;5.734;2023-07-13T07:10:16;101642.75;;;16.41;100.00
48790;BME280;41718;51.980;5.734;2023-07-13T07:15:18;101634.03;;;16.40;100.00
48790;BME280;41718;51.980;5.734;2023-07-13T07:20:20;101640.16;;;16.56;100.00
48790;BME280;41718;51.980;5.734;2023-07-13T07:25:24;101628.84;;;16.48;100.00
48790;BME280;41718;51.980;5.734;2023-07-13T07:30:26;101634.94;;;16.56;100.00
48790;BME280;41718;51.980;5.734;2023-07-13T07:35:31;101635.84;;;16.63;100.00
48790;BME280;41718;51.980;5.734;2023-07-13T07:40:41;101642.03;;;16.92;100.00
48790;BME280;41718;51.980;5.734;2023-07-13T07:45:46;101636.81;;;16.92;100.00
48790;BME280;41718;51.980;5.734;2023-07-13T07:50:48;101637.69;;;16.98;100.00
48790;BME280;41718;51.980;5.734;2023-07-13T07:55:50;101621.13;;;17.06;100.00
48790;BME280;41718;51.980;5.734;2023-07-13T08:01:02;101628.09;;;17.59;100.00
48790;BME280;41718;51.980;5.734;2023-07-13T08:06:07;101608.00;;;17.84;100.00
48790;BME280;41718;51.980;5.734;2023-07-13T08:11:12;101594.88;;;17.96;100.00
48790;BME280;41718;51.980;5.734;2023-07-13T08:16:17;101601.47;;;18.77;100.00
48790;BME280;41718;51.980;5.734;2023-07-13T08:21:19;101585.38;;;19.24;100.00
48790;BME280;41718;51.980;5.734;2023-07-13T08:26:23;101569.22;;;18.61;100.00
48790;BME280;41718;51.980;5.734;2023-07-13T08:31:25;101569.31;;;18.43;100.00
48790;BME280;41718;51.980;5.734;2023-07-13T08:36:27;101576.34;;;18.36;100.00
48790;BME280;41718;51.980;5.734;2023-07-13T08:41:29;101572.06;;;18.23;100.00
48790;BME280;41718;51.980;5.734;2023-07-13T08:46:40;101560.94;;;19.16;100.00
48790;BME280;41718;51.980;5.734;2023-07-13T08:52:05;101532.84;;;19.29;100.00
48790;BME280;41718;51.980;5.734;2023-07-13T08:57:17;101515.16;;;19.48;100.00
48790;BME280;41718;51.980;5.734;2023-07-13T09:02:28;101503.25;;;19.93;100.00
48790;BME280;41718;51.980;5.734;2023-07-13T09:18:45;101510.19;;;19.23;100.00
48790;BME280;41718;51.980;5.734;2023-07-13T09:23:46;101529.59;;;19.02;100.00
48790;BME280;41718;51.980;5.734;2023-07-13T09:28:51;101538.34;;;19.00;100.00
48790;BME280;41718;51.980;5.734;2023-07-13T09:33:55;101570.22;;;18.45;100.00
48790;BME280;41718;51.980;5.734;2023-07-13T09:39:14;101582.53;;;18.27;100.00
48790;BME280;41718;51.980;5.734;2023-07-13T09:44:30;101589.59;;;18.12;100.00
48790;BME280;41718;51.980;5.734;2023-07-13T09:49:36;101599.91;;;18.42;100.00
48790;BME280;41718;51.980;5.734;2023-07-13T09:54:43;101615.63;;;18.42;100.00
48790;BME280;41718;51.980;5.734;2023-07-13T09:59:47;101602.56;;;19.57;100.00
48790;BME280;41718;51.980;5.734;2023-07-13T10:04:55;101571.31;;;20.11;100.00
48790;BME280;41718;51.980;5.734;2023-07-13T10:10:00;101548.94;;;19.81;100.00
48790;BME280;41718;51.980;5.734;2023-07-13T10:15:02;101544.66;;;20.96;100.00
48790;BME280;41718;51.980;5.734;2023-07-13T10:20:26;101533.44;;;20.26;100.00
48790;BME280;41718;51.980;5.734;2023-07-13T10:25:38;101551.00;;;19.52;100.00
48790;BME280;41718;51.980;5.734;2023-07-13T10:30:46;101572.25;;;20.06;100.00
48790;BME280;41718;51.980;5.734;2023-07-13T10:36:05;101581.56;;;19.59;100.00
48790;BME280;41718;51.980;5.734;2023-07-13T10:41:15;101578.63;;;20.56;100.00
48790;BME280;41718;51.980;5.734;2023-07-13T10:46:20;101559.91;;;21.30;100.00
48790;BME280;41718;51.980;5.734;2023-07-13T10:51:23;101558.16;;;20.76;100.00
48790;BME280;41718;51.980;5.734;2023-07-13T10:56:30;101537.53;;;20.47;100.00
48790;BME280;41718;51.980;5.734;2023-07-13T11:07:21;101521.75;;;21.03;100.00
48790;BME280;41718;51.980;5.734;2023-07-13T11:22:41;101560.28;;;20.51;100.00
48790;BME280;41718;51.980;5.734;2023-07-13T11:27:52;101550.81;;;21.46;100.00
48790;BME280;41718;51.980;5.734;2023-07-13T11:33:21;101531.47;;;21.92;100.00
48790;BME280;41718;51.980;5.734;2023-07-13T11:43:35;101525.19;;;21.56;100.00
48790;BME280;41718;51.980;5.734;2023-07-13T11:48:37;101529.72;;;21.48;100.00
48790;BME280;41718;51.980;5.734;2023-07-13T11:53:44;101557.91;;;20.90;100.00
48790;BME280;41718;51.980;5.734;2023-07-13T11:58:51;101561.59;;;21.32;100.00
48790;BME280;41718;51.980;5.734;2023-07-13T12:03:54;101544.63;;;21.92;100.00
48790;BME280;41718;51.980;5.734;2023-07-13T12:09:11;101534.66;;;22.06;100.00
48790;BME280;41718;51.980;5.734;2023-07-13T12:14:18;101538.78;;;22.58;100.00
48790;BME280;41718;51.980;5.734;2023-07-13T12:19:26;101534.00;;;22.74;100.00
48790;BME280;41718;51.980;5.734;2023-07-13T12:24:37;101538.25;;;21.60;100.00
48790;BME280;41718;51.980;5.734;2023-07-13T12:29:49;101549.63;;;21.61;100.00
48790;BME280;41718;51.980;5.734;2023-07-13T12:34:56;101551.75;;;22.29;100.00
48790;BME280;41718;51.980;5.734;2023-07-13T12:39:58;101549.88;;;21.50;100.00
48790;BME280;41718;51.980;5.734;2023-07-13T12:45:22;101540.03;;;22.79;100.00
48790;BME280;41718;51.980;5.734;2023-07-13T12:50:33;101535.75;;;22.73;100.00
48790;BME280;41718;51.980;5.734;2023-07-13T12:55:47;101533.28;;;23.05;100.00
48790;BME280;41718;51.980;5.734;2023-07-13T13:00:54;101526.00;;;22.01;100.00
48790;BME280;41718;51.980;5.734;2023-07-13T13:05:58;101521.78;;;22.33;100.00
48790;BME280;41718;51.980;5.734;2023-07-13T13:11:02;101518.72;;;22.88;100.00
48790;BME280;41718;51.980;5.734;2023-07-13T13:16:19;101483.56;;;23.20;100.00
48790;BME280;41718;51.980;5.734;2023-07-13T13:21:22;101498.81;;;22.73;100.00
48790;BME280;41718;51.980;5.734;2023-07-13T13:26:28;101474.84;;;23.17;100.00
48790;BME280;41718;51.980;5.734;2023-07-13T13:31:29;101489.22;;;22.71;100.00
48790;BME280;41718;51.980;5.734;2023-07-13T13:36:31;101481.16;;;22.77;100.00
48790;BME280;41718;51.980;5.734;2023-07-13T13:41:33;101469.66;;;23.14;100.00
48790;BME280;41718;51.980;5.734;2023-07-13T13:46:35;101482.66;;;23.21;100.00
48790;BME280;41718;51.980;5.734;2023-07-13T13:51:37;101489.66;;;22.90;100.00
48790;BME280;41718;51.980;5.734;2023-07-13T13:56:40;101490.44;;;22.93;100.00
48790;BME280;41718;51.980;5.734;2023-07-13T14:01:43;101483.56;;;22.51;100.00
48790;BME280;41718;51.980;5.734;2023-07-13T14:06:46;101485.66;;;22.38;100.00
48790;BME280;41718;51.980;5.734;2023-07-13T14:11:49;101486.69;;;22.66;100.00
48790;BME280;41718;51.980;5.734;2023-07-13T14:16:52;101492.13;;;22.25;100.00
48790;BME280;41718;51.980;5.734;2023-07-13T14:21:56;101483.63;;;22.49;100.00
48790;BME280;41718;51.980;5.734;2023-07-13T14:27:00;101495.28;;;22.39;100.00
48790;BME280;41718;51.980;5.734;2023-07-13T14:32:01;101495.06;;;22.11;100.00
48790;BME280;41718;51.980;5.734;2023-07-13T14:37:12;101489.94;;;22.42;100.00
48790;BME280;41718;51.980;5.734;2023-07-13T14:42:15;101497.38;;;21.84;100.00
48790;BME280;41718;51.980;5.734;2023-07-13T14:47:17;101497.28;;;21.87;100.00
48790;BME280;41718;51.980;5.734;2023-07-13T14:52:22;101498.94;;;21.93;100.00
48790;BME280;41718;51.980;5.734;2023-07-13T14:57:28;101506.06;;;21.88;100.00
48790;BME280;41718;51.980;5.734;2023-07-13T15:02:33;101502.03;;;21.25;100.00
48790;BME280;41718;51.980;5.734;2023-07-13T15:07:36;101495.09;;;21.67;100.00
48790;BME280;41718;51.980;5.734;2023-07-13T15:12:40;101502.97;;;21.69;100.00
48790;BME280;41718;51.980;5.734;2023-07-13T15:17:47;101496.88;;;21.67;100.00
48790;BME280;41718;51.980;5.734;2023-07-13T15:22:52;101501.31;;;21.63;100.00
48790;BME280;41718;51.980;5.734;2023-07-13T15:27:57;101515.06;;;21.34;100.00
48790;BME280;41718;51.980;5.734;2023-07-13T15:33:05;101519.66;;;21.20;100.00
48790;BME280;41718;51.980;5.734;2023-07-13T15:38:22;101519.75;;;21.17;100.00
48790;BME280;41718;51.980;5.734;2023-07-13T15:43:26;101522.09;;;21.34;100.00
48790;BME280;41718;51.980;5.734;2023-07-13T15:48:30;101517.34;;;21.05;100.00
48790;BME280;41718;51.980;5.734;2023-07-13T15:53:34;101530.84;;;21.34;100.00
48790;BME280;41718;51.980;5.734;2023-07-13T15:58:37;101548.66;;;20.66;100.00
48790;BME280;41718;51.980;5.734;2023-07-13T16:03:40;101548.16;;;20.97;100.00
48790;BME280;41718;51.980;5.734;2023-07-13T16:08:45;101547.97;;;20.55;100.00
48790;BME280;41718;51.980;5.734;2023-07-13T16:13:48;101541.50;;;21.25;100.00
48790;BME280;41718;51.980;5.734;2023-07-13T16:18:56;101545.41;;;21.03;100.00
48790;BME280;41718;51.980;5.734;2023-07-13T16:24:00;101545.69;;;20.87;100.00
48790;BME280;41718;51.980;5.734;2023-07-13T16:29:26;101547.22;;;21.52;100.00
48790;BME280;41718;51.980;5.734;2023-07-13T16:34:32;101518.94;;;21.61;100.00
48790;BME280;41718;51.980;5.734;2023-07-13T16:39:34;101511.53;;;21.35;100.00
48790;BME280;41718;51.980;5.734;2023-07-13T16:44:37;101507.28;;;21.73;100.00
48790;BME280;41718;51.980;5.734;2023-07-13T16:49:40;101511.06;;;22.02;100.00
48790;BME280;41718;51.980;5.734;2023-07-13T16:54:42;101503.44;;;21.88;100.00
48790;BME280;41718;51.980;5.734;2023-07-13T16:59:45;101509.09;;;22.11;100.00
48790;BME280;41718;51.980;5.734;2023-07-13T17:04:47;101510.16;;;22.03;100.00
48790;BME280;41718;51.980;5.734;2023-07-13T17:09:49;101517.56;;;21.84;100.00
48790;BME280;41718;51.980;5.734;2023-07-13T17:14:53;101521.59;;;22.00;100.00
48790;BME280;41718;51.980;5.734;2023-07-13T17:19:55;101511.63;;;21.74;100.00
48790;BME280;41718;51.980;5.734;2023-07-13T17:24:57;101510.38;;;21.92;100.00
48790;BME280;41718;51.980;5.734;2023-07-13T17:30:00;101517.31;;;21.96;100.00
48790;BME280;41718;51.980;5.734;2023-07-13T17:35:24;101522.59;;;21.94;100.00
48790;BME280;41718;51.980;5.734;2023-07-13T17:40:27;101513.88;;;21.92;100.00
48790;BME280;41718;51.980;5.734;2023-07-13T17:45:30;101516.91;;;21.28;100.00
48790;BME280;41718;51.980;5.734;2023-07-13T17:50:33;101519.31;;;21.41;100.00
48790;BME280;41718;51.980;5.734;2023-07-13T17:55:38;101525.69;;;21.75;100.00
48790;BME280;41718;51.980;5.734;2023-07-13T18:00:42;101525.72;;;21.73;100.00
48790;BME280;41718;51.980;5.734;2023-07-13T18:05:45;101539.00;;;21.19;100.00
48790;BME280;41718;51.980;5.734;2023-07-13T18:10:48;101536.72;;;20.98;100.00
48790;BME280;41718;51.980;5.734;2023-07-13T18:15:49;101544.41;;;21.11;100.00
48790;BME280;41718;51.980;5.734;2023-07-13T18:20:53;101547.69;;;20.70;100.00
48790;BME280;41718;51.980;5.734;2023-07-13T18:25:55;101557.09;;;20.86;100.00
48790;BME280;41718;51.980;5.734;2023-07-13T18:30:57;101553.66;;;20.81;100.00
48790;BME280;41718;51.980;5.734;2023-07-13T18:36:01;101568.00;;;20.62;100.00
48790;BME280;41718;51.980;5.734;2023-07-13T18:41:03;101575.28;;;20.42;100.00
48790;BME280;41718;51.980;5.734;2023-07-13T18:46:15;101578.06;;;20.31;100.00
48790;BME280;41718;51.980;5.734;2023-07-13T18:51:19;101586.19;;;20.11;100.00
48790;BME280;41718;51.980;5.734;2023-07-13T18:56:24;101588.16;;;19.95;100.00
48790;BME280;41718;51.980;5.734;2023-07-13T19:01:32;101594.34;;;19.90;100.00
48790;BME280;41718;51.980;5.734;2023-07-13T19:06:36;101613.00;;;19.65;100.00
48790;BME280;41718;51.980;5.734;2023-07-13T19:11:38;101607.66;;;19.74;100.00
48790;BME280;41718;51.980;5.734;2023-07-13T19:16:40;101612.22;;;19.51;100.00
48790;BME280;41718;51.980;5.734;2023-07-13T19:21:45;101621.09;;;19.39;100.00
48790;BME280;41718;51.980;5.734;2023-07-13T19:26:48;101626.38;;;19.36;100.00
48790;BME280;41718;51.980;5.734;2023-07-13T19:31:52;101628.25;;;19.17;100.00
48790;BME280;41718;51.980;5.734;2023-07-13T19:37:02;101636.28;;;19.00;100.00
48790;BME280;41718;51.980;5.734;2023-07-13T19:42:25;101644.22;;;18.90;100.00
48790;BME280;41718;51.980;5.734;2023-07-13T19:47:28;101656.59;;;18.63;100.00
48790;BME280;41718;51.980;5.734;2023-07-13T19:52:31;101656.59;;;18.68;100.00
48790;BME280;41718;51.980;5.734;2023-07-13T19:57:33;101662.84;;;18.25;100.00
48790;BME280;41718;51.980;5.734;2023-07-13T20:02:35;101677.75;;;18.16;100.00
48790;BME280;41718;51.980;5.734;2023-07-13T20:07:37;101680.38;;;18.16;100.00
48790;BME280;41718;51.980;5.734;2023-07-13T20:12:38;101687.41;;;17.85;100.00
48790;BME280;41718;51.980;5.734;2023-07-13T20:17:41;101701.34;;;17.62;100.00
48790;BME280;41718;51.980;5.734;2023-07-13T20:22:46;101698.75;;;17.38;100.00
48790;BME280;41718;51.980;5.734;2023-07-13T20:27:48;101705.72;;;17.20;100.00
48790;BME280;41718;51.980;5.734;2023-07-13T20:32:50;101708.28;;;17.07;100.00
48790;BME280;41718;51.980;5.734;2023-07-13T20:37:54;101722.22;;;16.92;100.00
48790;BME280;41718;51.980;5.734;2023-07-13T20:42:57;101726.44;;;16.67;100.00
48790;BME280;41718;51.980;5.734;2023-07-13T20:53:24;101744.81;;;16.78;100.00
48790;BME280;41718;51.980;5.734;2023-07-13T20:58:26;101761.22;;;16.55;100.00
48790;BME280;41718;51.980;5.734;2023-07-13T21:03:28;101779.50;;;16.55;100.00
48790;BME280;41718;51.980;5.734;2023-07-13T21:08:30;101783.75;;;16.38;100.00
48790;BME280;41718;51.980;5.734;2023-07-13T21:13:32;101787.16;;;16.23;100.00
48790;BME280;41718;51.980;5.734;2023-07-13T21:18:33;101794.06;;;16.15;100.00
48790;BME280;41718;51.980;5.734;2023-07-13T21:23:47;101799.38;;;16.27;100.00
48790;BME280;41718;51.980;5.734;2023-07-13T21:28:53;101796.63;;;16.06;100.00
48790;BME280;41718;51.980;5.734;2023-07-13T21:34:01;101810.44;;;15.94;100.00
48790;BME280;41718;51.980;5.734;2023-07-13T21:39:10;101818.28;;;15.97;100.00
48790;BME280;41718;51.980;5.734;2023-07-13T21:44:23;101823.59;;;16.09;100.00
48790;BME280;41718;51.980;5.734;2023-07-13T21:49:26;101815.72;;;16.00;100.00
48790;BME280;41718;51.980;5.734;2023-07-13T21:54:27;101827.03;;;16.01;100.00
48790;BME280;41718;51.980;5.734;2023-07-13T21:59:29;101830.38;;;15.84;100.00
48790;BME280;41718;51.980;5.734;2023-07-13T22:04:31;101821.66;;;15.84;100.00
48790;BME280;41718;51.980;5.734;2023-07-13T22:09:32;101821.50;;;15.69;100.00
48790;BME280;41718;51.980;5.734;2023-07-13T22:14:34;101811.94;;;15.68;100.00
48790;BME280;41718;51.980;5.734;2023-07-13T22:19:36;101821.31;;;15.52;100.00
48790;BME280;41718;51.980;5.734;2023-07-13T22:24:37;101816.97;;;15.52;100.00
48790;BME280;41718;51.980;5.734;2023-07-13T22:29:39;101819.50;;;15.46;100.00
48790;BME280;41718;51.980;5.734;2023-07-13T22:34:40;101813.59;;;15.61;100.00
48790;BME280;41718;51.980;5.734;2023-07-13T22:39:43;101816.84;;;15.40;100.00
48790;BME280;41718;51.980;5.734;2023-07-13T22:44:45;101808.91;;;15.28;100.00
48790;BME280;41718;51.980;5.734;2023-07-13T22:49:49;101799.25;;;15.21;100.00
48790;BME280;41718;51.980;5.734;2023-07-13T22:54:51;101804.28;;;15.04;100.00
48790;BME280;41718;51.980;5.734;2023-07-13T22:59:52;101819.06;;;15.05;100.00
48790;BME280;41718;51.980;5.734;2023-07-13T23:04:55;101810.53;;;15.20;100.00
48790;BME280;41718;51.980;5.734;2023-07-13T23:09:57;101802.75;;;15.24;100.00
48790;BME280;41718;51.980;5.734;2023-07-13T23:15:11;101808.25;;;15.49;100.00
48790;BME280;41718;51.980;5.734;2023-07-13T23:20:40;101817.13;;;15.64;100.00
48790;BME280;41718;51.980;5.734;2023-07-13T23:25:42;101817.94;;;15.62;100.00
48790;BME280;41718;51.980;5.734;2023-07-13T23:30:48;101807.09;;;15.24;100.00
48790;BME280;41718;51.980;5.734;2023-07-13T23:35:51;101811.03;;;14.88;100.00
48790;BME280;41718;51.980;5.734;2023-07-13T23:40:56;101819.72;;;14.90;100.00
48790;BME280;41718;51.980;5.734;2023-07-13T23:45:59;101807.56;;;14.91;100.00
48790;BME280;41718;51.980;5.734;2023-07-13T23:51:01;101806.59;;;14.81;100.00
48790;BME280;41718;51.980;5.734;2023-07-13T23:56:18;101804.97;;;14.89;100.00
